createdAt,value
2017-11-25T00:00:43.733Z,43.27
2017-11-25T00:03:12.051Z,43.87
2017-11-25T00:05:40.484Z,42.90
2017-11-25T00:08:08.868Z,37.67
2017-11-25T00:10:37.961Z,35.20
2017-11-25T00:13:07.016Z,35.20
2017-11-25T00:15:35.399Z,38.47
2017-11-25T00:18:03.687Z,35.90
2017-11-25T00:20:32.085Z,41.07
2017-11-25T00:23:01.162Z,40.37
2017-11-25T00:25:30.226Z,41.20
2017-11-25T00:27:58.563Z,39.17
2017-11-25T00:30:26.871Z,38.23
2017-11-25T00:32:55.195Z,41.37
2017-11-25T00:35:24.280Z,42.67
2017-11-25T00:37:53.204Z,41.63
2017-11-25T00:40:21.508Z,40.20
2017-11-25T00:42:49.941Z,44.90
2017-11-25T00:45:18.263Z,42.00
2017-11-25T00:47:46.595Z,42.43
2017-11-25T00:50:14.940Z,45.50
2017-11-25T00:52:43.242Z,43.20
2017-11-25T00:55:12.339Z,41.70
2017-11-25T00:57:41.405Z,49.73
2017-11-25T01:00:09.724Z,44.17
2017-11-25T01:02:38.774Z,55.37
2017-11-25T01:05:07.109Z,57.00
2017-11-25T01:07:35.461Z,48.13
2017-11-25T01:10:03.781Z,56.77
2017-11-25T01:12:32.099Z,45.10
2017-11-25T01:15:00.399Z,55.33
2017-11-25T01:17:28.764Z,48.67
2017-11-25T01:19:57.830Z,45.13
2017-11-25T01:22:26.162Z,42.40
2017-11-25T01:24:54.475Z,50.57
2017-11-25T01:27:22.866Z,49.57
2017-11-25T01:29:51.174Z,44.03
2017-11-25T01:32:20.272Z,36.83
2017-11-25T01:34:49.363Z,43.47
2017-11-25T01:37:17.691Z,44.83
2017-11-25T01:39:45.980Z,48.27
2017-11-25T01:42:14.262Z,46.57
2017-11-25T01:44:43.379Z,42.17
2017-11-25T01:47:12.451Z,45.47
2017-11-25T01:49:40.772Z,41.93
2017-11-25T01:52:09.064Z,48.30
2017-11-25T01:54:37.420Z,56.93
2017-11-25T01:57:05.739Z,53.00
2017-11-25T01:59:34.068Z,62.47
2017-11-25T02:02:03.136Z,67.03
2017-11-25T02:04:31.445Z,54.50
2017-11-25T02:06:59.760Z,56.60
2017-11-25T02:09:28.119Z,68.90
2017-11-25T02:11:56.476Z,66.30
2017-11-25T02:14:24.819Z,61.37
2017-11-25T02:16:53.132Z,59.80
2017-11-25T02:19:21.486Z,58.80
2017-11-25T02:21:49.800Z,60.60
2017-11-25T02:24:18.139Z,62.00
2017-11-25T02:26:46.456Z,56.10
2017-11-25T02:29:14.765Z,54.50
2017-11-25T02:31:43.672Z,58.40
2017-11-25T02:34:11.973Z,62.47
2017-11-25T02:36:40.325Z,66.53
2017-11-25T02:39:08.648Z,48.50
2017-11-25T02:41:36.949Z,50.60
2017-11-25T02:44:05.292Z,53.80
2017-11-25T02:46:33.579Z,57.63
2017-11-25T02:49:01.905Z,60.23
2017-11-25T02:51:30.200Z,59.00
2017-11-25T02:53:59.269Z,47.17
2017-11-25T02:56:27.596Z,47.60
2017-11-25T02:58:55.911Z,49.67
2017-11-25T03:01:24.237Z,55.77
2017-11-25T03:03:52.567Z,53.43
2017-11-25T03:06:20.881Z,48.20
2017-11-25T03:08:49.981Z,46.90
2017-11-25T03:11:19.056Z,51.83
2017-11-25T03:13:47.354Z,44.97
2017-11-25T03:16:16.459Z,44.43
2017-11-25T03:18:45.512Z,50.63
2017-11-25T03:21:13.796Z,50.27
2017-11-25T03:23:42.891Z,53.33
2017-11-25T03:26:11.283Z,59.40
2017-11-25T03:28:40.483Z,50.33
2017-11-25T03:31:09.706Z,59.43
2017-11-25T03:33:38.005Z,47.43
2017-11-25T03:36:06.291Z,54.23
2017-11-25T03:38:34.595Z,55.93
2017-11-25T03:41:02.888Z,56.37
2017-11-25T03:43:31.228Z,56.07
2017-11-25T03:46:00.007Z,58.23
2017-11-25T03:48:28.292Z,50.73
2017-11-25T03:50:56.605Z,53.03
2017-11-25T03:53:25.670Z,50.20
2017-11-25T03:55:54.010Z,52.87
2017-11-25T03:58:22.293Z,57.80
2017-11-25T04:00:50.682Z,55.30
2017-11-25T04:03:18.972Z,54.43
2017-11-25T04:05:47.278Z,45.67
2017-11-25T04:08:16.340Z,54.73
2017-11-25T04:10:44.656Z,52.17
2017-11-25T04:13:12.994Z,53.60
2017-11-25T04:15:41.402Z,49.63
2017-11-25T04:18:10.495Z,49.87
2017-11-25T04:20:38.787Z,46.77
2017-11-25T04:23:07.865Z,52.27
2017-11-25T04:25:36.932Z,51.07
2017-11-25T04:28:05.268Z,48.80
2017-11-25T04:30:33.571Z,42.77
2017-11-25T04:33:01.888Z,53.80
2017-11-25T04:35:30.959Z,49.07
2017-11-25T04:37:59.359Z,54.07
2017-11-25T04:40:27.738Z,51.33
2017-11-25T04:42:56.795Z,54.03
2017-11-25T04:45:25.214Z,60.57
2017-11-25T04:47:54.998Z,63.27
2017-11-25T04:50:23.345Z,57.80
2017-11-25T04:52:51.640Z,59.13
2017-11-25T04:55:19.945Z,56.33
2017-11-25T04:57:49.016Z,58.83
2017-11-25T05:00:18.117Z,59.07
2017-11-25T05:02:46.410Z,52.53
2017-11-25T05:05:14.748Z,55.97
2017-11-25T05:07:43.043Z,51.80
2017-11-25T05:10:11.340Z,62.10
2017-11-25T05:12:40.435Z,54.90
2017-11-25T05:15:09.506Z,52.03
2017-11-25T05:17:37.852Z,62.03
2017-11-25T05:20:06.165Z,57.80
2017-11-25T05:22:34.501Z,61.40
2017-11-25T05:25:02.806Z,62.93
2017-11-25T05:27:31.329Z,62.00
2017-11-25T05:30:00.409Z,63.40
2017-11-25T05:32:29.480Z,56.03
2017-11-25T05:34:58.629Z,67.37
2017-11-25T05:37:27.704Z,58.20
2017-11-25T05:39:56.910Z,55.90
2017-11-25T05:42:25.288Z,62.43
2017-11-25T05:44:53.659Z,57.67
2017-11-25T05:47:23.016Z,50.47
2017-11-25T05:49:51.340Z,52.53
2017-11-25T05:52:20.401Z,59.80
2017-11-25T05:54:48.804Z,51.00
2017-11-25T05:57:17.091Z,43.63
2017-11-25T05:59:46.176Z,51.80
2017-11-25T06:02:14.554Z,43.93
2017-11-25T06:04:42.842Z,55.63
2017-11-25T06:07:11.911Z,46.53
2017-11-25T06:09:41.021Z,50.73
2017-11-25T06:12:10.136Z,56.30
2017-11-25T06:14:38.439Z,50.40
2017-11-25T06:17:06.728Z,59.07
2017-11-25T06:19:35.069Z,61.90
2017-11-25T06:22:03.374Z,55.10
2017-11-25T06:24:31.724Z,62.30
2017-11-25T06:27:00.049Z,53.47
2017-11-25T06:29:28.383Z,63.60
2017-11-25T06:31:56.671Z,55.00
2017-11-25T06:34:25.007Z,47.53
2017-11-25T06:36:54.265Z,44.87
2017-11-25T06:39:22.591Z,42.30
2017-11-25T06:41:50.913Z,46.03
2017-11-25T06:44:19.217Z,47.27
2017-11-25T06:46:47.538Z,49.67
2017-11-25T06:49:15.857Z,53.43
2017-11-25T06:51:44.195Z,36.23
2017-11-25T06:54:13.232Z,41.37
2017-11-25T06:56:41.523Z,40.13
2017-11-25T06:59:10.615Z,38.47
2017-11-25T07:01:39.724Z,42.47
2017-11-25T07:04:08.817Z,30.60
2017-11-25T07:06:37.139Z,30.77
2017-11-25T07:09:05.443Z,30.93
2017-11-25T07:11:33.772Z,34.40
2017-11-25T07:14:02.101Z,38.70
2017-11-25T07:16:30.397Z,36.80
2017-11-25T07:18:58.744Z,41.37
2017-11-25T07:21:27.025Z,30.17
2017-11-25T07:23:55.343Z,28.40
2017-11-25T07:26:23.679Z,40.63
2017-11-25T07:28:52.104Z,45.20
2017-11-25T07:31:21.198Z,48.23
2017-11-25T07:33:49.528Z,46.17
2017-11-25T07:36:17.821Z,38.20
2017-11-25T07:38:46.224Z,40.83
2017-11-25T07:41:14.527Z,36.53
2017-11-25T07:43:42.979Z,40.57
2017-11-25T07:46:11.306Z,35.70
2017-11-25T07:48:39.667Z,33.53
2017-11-25T07:51:07.972Z,40.87
2017-11-25T07:53:36.288Z,46.00
2017-11-25T07:56:04.605Z,37.37
2017-11-25T07:58:32.959Z,32.13
2017-11-25T08:01:01.273Z,25.90
2017-11-25T08:03:29.579Z,28.33
2017-11-25T08:05:59.568Z,15.40
2017-11-25T08:08:27.866Z,15.37
2017-11-25T08:10:56.969Z,20.20
2017-11-25T08:13:25.751Z,17.60
2017-11-25T08:15:54.072Z,14.37
2017-11-25T08:18:22.403Z,22.80
2017-11-25T08:20:50.721Z,38.23
2017-11-25T08:23:19.007Z,41.90
2017-11-25T08:25:47.325Z,30.40
2017-11-25T08:28:15.604Z,10.77
2017-11-25T08:30:44.704Z,9.93
2017-11-25T08:33:13.018Z,11.67
2017-11-25T08:35:41.344Z,11.30
2017-11-25T08:38:10.440Z,12.27
2017-11-25T08:40:38.827Z,11.73
2017-11-25T08:43:07.132Z,12.90
2017-11-25T08:45:35.456Z,12.53
2017-11-25T08:48:03.792Z,11.40
2017-11-25T08:50:32.107Z,13.03
2017-11-25T08:53:00.407Z,37.43
2017-11-25T08:55:29.537Z,13.10
2017-11-25T08:57:57.876Z,12.33
2017-11-25T09:00:26.160Z,12.47
2017-11-25T09:02:55.254Z,16.37
2017-11-25T09:05:23.560Z,34.33
2017-11-25T09:07:51.888Z,11.80
2017-11-25T09:10:20.241Z,12.27
2017-11-25T09:12:48.540Z,11.93
2017-11-25T09:15:16.876Z,42.67
2017-11-25T09:17:45.201Z,12.00
2017-11-25T09:20:14.312Z,31.23
2017-11-25T09:22:43.398Z,30.63
2017-11-25T09:25:11.676Z,28.23
2017-11-25T09:27:40.037Z,35.80
2017-11-25T09:30:08.332Z,32.93
2017-11-25T09:32:37.428Z,35.60
2017-11-25T09:35:05.773Z,38.03
2017-11-25T09:37:34.092Z,34.50
2017-11-25T09:40:02.397Z,34.70
2017-11-25T09:42:30.725Z,37.70
2017-11-25T09:44:59.054Z,30.83
2017-11-25T09:47:27.355Z,22.90
2017-11-25T09:49:55.692Z,34.60
2017-11-25T09:52:23.988Z,37.50
2017-11-25T09:54:52.380Z,34.43
2017-11-25T09:57:21.486Z,31.07
2017-11-25T09:59:49.855Z,26.30
2017-11-25T10:02:18.179Z,35.93
2017-11-25T10:04:46.491Z,34.43
2017-11-25T10:07:14.792Z,38.80
2017-11-25T10:09:43.150Z,29.37
2017-11-25T10:12:11.447Z,38.50
2017-11-25T10:14:39.783Z,25.97
2017-11-25T10:17:08.144Z,22.53
2017-11-25T10:19:37.208Z,19.90
2017-11-25T10:22:05.531Z,23.67
2017-11-25T10:24:33.824Z,21.30
2017-11-25T10:27:02.272Z,30.83
2017-11-25T10:29:30.574Z,34.53
2017-11-25T10:31:58.897Z,27.63
2017-11-25T10:34:27.196Z,39.07
2017-11-25T10:36:55.516Z,28.27
2017-11-25T10:39:23.812Z,28.40
2017-11-25T10:41:52.157Z,29.83
2017-11-25T10:44:20.452Z,30.70
2017-11-25T10:46:48.765Z,29.20
2017-11-25T10:49:17.197Z,28.63
2017-11-25T10:51:45.515Z,34.17
2017-11-25T10:54:13.873Z,33.43
2017-11-25T10:56:42.270Z,31.90
2017-11-25T10:59:10.674Z,28.10
2017-11-25T11:01:39.048Z,26.83
2017-11-25T11:04:08.267Z,21.40
2017-11-25T11:06:36.663Z,24.80
2017-11-25T11:09:05.004Z,14.90
2017-11-25T11:11:33.359Z,18.93
2017-11-25T11:14:01.691Z,23.03
2017-11-25T11:16:30.110Z,12.20
2017-11-25T11:18:58.417Z,23.23
2017-11-25T11:21:26.752Z,27.93
2017-11-25T11:23:55.092Z,15.87
2017-11-25T11:26:23.459Z,16.40
2017-11-25T11:28:51.761Z,15.07
2017-11-25T11:31:20.089Z,17.53
2017-11-25T11:33:49.611Z,22.13
2017-11-25T11:36:18.051Z,12.33
2017-11-25T11:38:47.155Z,9.93
2017-11-25T11:41:15.468Z,23.37
2017-11-25T11:43:43.787Z,22.70
2017-11-25T11:46:12.080Z,18.37
2017-11-25T11:48:41.482Z,16.83
2017-11-25T11:51:09.791Z,16.63
2017-11-25T11:53:38.875Z,19.03
2017-11-25T11:56:07.176Z,16.60
2017-11-25T11:58:35.522Z,14.77
2017-11-25T12:01:04.132Z,15.03
2017-11-25T12:03:32.438Z,16.63
2017-11-25T12:06:00.753Z,17.70
2017-11-25T12:08:29.836Z,19.67
2017-11-25T12:10:58.172Z,22.77
2017-11-25T12:13:26.472Z,28.40
2017-11-25T12:15:54.817Z,25.27
2017-11-25T12:18:23.113Z,27.13
2017-11-25T12:20:51.417Z,25.57
2017-11-25T12:23:19.749Z,22.77
2017-11-25T12:25:48.048Z,28.20
2017-11-25T12:28:16.370Z,24.30
2017-11-25T12:30:45.451Z,17.90
2017-11-25T12:33:14.562Z,22.77
2017-11-25T12:35:42.844Z,21.77
2017-11-25T12:38:11.918Z,27.77
2017-11-25T12:40:40.239Z,29.47
2017-11-25T12:43:08.527Z,30.77
2017-11-25T12:45:37.340Z,28.47
2017-11-25T12:48:05.639Z,29.20
2017-11-25T12:50:33.972Z,35.13
2017-11-25T12:53:02.324Z,30.63
2017-11-25T12:55:30.635Z,32.00
2017-11-25T12:57:58.968Z,30.97
2017-11-25T13:00:27.339Z,31.60
2017-11-25T13:02:55.635Z,29.47
2017-11-25T13:05:24.686Z,26.80
2017-11-25T13:07:52.990Z,26.07
2017-11-25T13:10:22.058Z,29.03
2017-11-25T13:12:50.359Z,33.80
2017-11-25T13:15:19.407Z,27.80
2017-11-25T13:17:47.716Z,27.53
2017-11-25T13:20:16.000Z,34.47
2017-11-25T13:22:44.324Z,49.63
2017-11-25T13:25:12.656Z,32.70
2017-11-25T13:27:41.782Z,33.43
2017-11-25T13:30:10.089Z,31.10
2017-11-25T13:32:38.356Z,31.30
2017-11-25T13:35:06.687Z,30.93
2017-11-25T13:37:35.000Z,35.40
2017-11-25T13:40:03.326Z,33.57
2017-11-25T13:42:31.656Z,32.07
2017-11-25T13:45:00.113Z,30.67
2017-11-25T13:47:28.397Z,37.43
2017-11-25T13:49:56.744Z,38.80
2017-11-25T13:52:25.801Z,29.70
2017-11-25T13:54:54.153Z,30.73
2017-11-25T13:57:22.464Z,33.10
2017-11-25T13:59:50.745Z,41.80
2017-11-25T14:02:19.068Z,38.67
2017-11-25T14:04:47.365Z,36.20
2017-11-25T14:07:15.688Z,43.83
2017-11-25T14:09:43.998Z,42.37
2017-11-25T14:12:12.321Z,38.77
2017-11-25T14:14:40.606Z,40.40
2017-11-25T14:17:09.742Z,44.23
2017-11-25T14:19:39.291Z,48.80
2017-11-25T14:22:07.652Z,52.63
2017-11-25T14:24:37.207Z,52.40
2017-11-25T14:27:05.738Z,51.27
2017-11-25T14:29:34.046Z,48.97
2017-11-25T14:32:02.362Z,55.30
2017-11-25T14:34:30.707Z,45.67
2017-11-25T14:36:59.080Z,48.60
2017-11-25T14:39:27.406Z,55.07
2017-11-25T14:41:55.700Z,44.90
2017-11-25T14:44:23.995Z,51.57
2017-11-25T14:46:52.336Z,51.83
2017-11-25T14:49:20.671Z,40.40
2017-11-25T14:51:49.393Z,41.93
2017-11-25T14:54:17.705Z,45.80
2017-11-25T14:56:46.113Z,41.17
2017-11-25T14:59:15.254Z,43.60
2017-11-25T15:01:44.403Z,41.60
2017-11-25T15:04:12.863Z,41.10
2017-11-25T15:06:41.314Z,41.37
2017-11-25T15:09:09.770Z,40.20
2017-11-25T15:11:38.468Z,37.20
2017-11-25T15:14:06.781Z,35.07
2017-11-25T15:16:35.105Z,35.53
2017-11-25T15:19:04.203Z,35.90
2017-11-25T15:21:32.551Z,38.90
2017-11-25T15:24:01.656Z,40.20
2017-11-25T15:26:30.793Z,29.20
2017-11-25T15:28:59.142Z,36.97
2017-11-25T15:31:27.607Z,56.30
2017-11-25T15:33:55.935Z,54.50
2017-11-25T15:36:24.253Z,46.93
2017-11-25T15:38:53.348Z,40.77
2017-11-25T15:41:21.752Z,33.23
2017-11-25T15:43:50.028Z,30.80
2017-11-25T15:46:19.536Z,31.37
2017-11-25T15:48:47.842Z,36.20
2017-11-25T15:51:17.113Z,35.00
2017-11-25T15:53:46.299Z,31.60
2017-11-25T15:56:15.423Z,34.00
2017-11-25T15:58:43.764Z,38.83
2017-11-25T16:01:12.945Z,22.27
2017-11-25T16:03:41.264Z,21.50
2017-11-25T16:06:09.573Z,48.30
2017-11-25T16:08:37.937Z,52.87
2017-11-25T16:11:06.315Z,44.40
2017-11-25T16:13:34.623Z,25.20
2017-11-25T16:16:03.796Z,26.53
2017-11-25T16:18:32.138Z,26.97
2017-11-25T16:21:00.555Z,39.30
2017-11-25T16:23:28.896Z,42.70
2017-11-25T16:25:57.288Z,45.10
2017-11-25T16:28:25.638Z,44.87
2017-11-25T16:30:54.058Z,50.33
2017-11-25T16:33:22.551Z,45.90
2017-11-25T16:35:50.956Z,43.80
2017-11-25T16:38:19.250Z,47.27
2017-11-25T16:40:47.740Z,49.47
2017-11-25T16:43:16.088Z,42.77
2017-11-25T16:45:45.204Z,46.17
2017-11-25T16:48:15.492Z,39.00
2017-11-25T16:50:44.628Z,45.47
2017-11-25T16:53:12.946Z,41.23
2017-11-25T16:55:41.329Z,44.73
2017-11-25T16:58:09.624Z,43.60
2017-11-25T17:00:37.939Z,42.43
2017-11-25T17:03:06.412Z,43.47
2017-11-25T17:05:35.478Z,41.07
2017-11-25T17:08:03.839Z,41.67
2017-11-25T17:10:32.988Z,42.27
2017-11-25T17:13:02.055Z,41.97
2017-11-25T17:15:31.248Z,34.80
2017-11-25T17:17:59.563Z,38.70
2017-11-25T17:20:27.956Z,44.13
2017-11-25T17:22:56.301Z,44.03
2017-11-25T17:25:25.364Z,38.60
2017-11-25T17:27:53.694Z,43.33
2017-11-25T17:30:22.106Z,38.93
2017-11-25T17:32:50.395Z,32.23
2017-11-25T17:35:18.830Z,34.27
2017-11-25T17:37:47.972Z,34.03
2017-11-25T17:40:16.552Z,37.20
2017-11-25T17:42:44.933Z,44.50
2017-11-25T17:45:13.465Z,37.00
2017-11-25T17:47:41.775Z,38.47
2017-11-25T17:50:10.137Z,41.63
2017-11-25T17:52:38.452Z,33.80
2017-11-25T17:55:06.856Z,43.60
2017-11-25T17:57:35.179Z,44.43
2017-11-25T18:00:03.510Z,46.00
2017-11-25T18:02:31.866Z,38.63
2017-11-25T18:05:00.163Z,34.23
2017-11-25T18:07:29.251Z,42.83
2017-11-25T18:09:58.311Z,42.43
2017-11-25T18:12:26.639Z,32.07
2017-11-25T18:14:54.943Z,42.90
2017-11-25T18:17:23.273Z,38.90
2017-11-25T18:19:51.663Z,38.67
2017-11-25T18:22:20.771Z,42.47
2017-11-25T18:24:49.064Z,42.57
2017-11-25T18:27:17.356Z,44.87
2017-11-25T18:29:45.674Z,43.33
2017-11-25T18:32:13.996Z,42.67
2017-11-25T18:34:42.332Z,39.60
2017-11-25T18:37:10.644Z,45.90
2017-11-25T18:39:38.964Z,39.03
2017-11-25T18:42:07.255Z,47.40
2017-11-25T18:44:36.350Z,42.17
2017-11-25T18:47:04.667Z,50.33
2017-11-25T18:49:33.007Z,47.40
2017-11-25T18:52:01.350Z,46.43
2017-11-25T18:54:29.661Z,40.33
2017-11-25T18:56:57.968Z,43.30
2017-11-25T18:59:26.263Z,40.90
2017-11-25T19:01:54.612Z,34.03
2017-11-25T19:04:22.922Z,45.10
2017-11-25T19:06:51.224Z,37.97
2017-11-25T19:09:19.511Z,35.67
2017-11-25T19:11:47.820Z,39.53
2017-11-25T19:14:16.120Z,38.60
2017-11-25T19:16:44.449Z,42.27
2017-11-25T19:19:12.762Z,41.00
2017-11-25T19:21:41.078Z,33.27
2017-11-25T19:24:09.406Z,54.13
2017-11-25T19:26:37.711Z,47.47
2017-11-25T19:29:06.040Z,43.83
2017-11-25T19:31:34.355Z,40.67
2017-11-25T19:34:02.689Z,41.70
2017-11-25T19:36:31.010Z,41.07
2017-11-25T19:38:59.393Z,43.00
2017-11-25T19:41:27.699Z,49.60
2017-11-25T19:43:56.787Z,51.50
2017-11-25T19:46:25.898Z,41.27
2017-11-25T19:48:54.984Z,43.87
2017-11-25T19:51:24.079Z,42.27
2017-11-25T19:53:52.388Z,46.47
2017-11-25T19:56:20.831Z,42.43
2017-11-25T19:58:49.189Z,48.50
2017-11-25T20:01:17.496Z,42.53
2017-11-25T20:03:45.797Z,47.60
2017-11-25T20:06:14.884Z,48.87
2017-11-25T20:08:43.927Z,52.50
2017-11-25T20:11:12.242Z,52.57
2017-11-25T20:13:40.563Z,52.80
2017-11-25T20:16:08.875Z,56.40
2017-11-25T20:18:37.179Z,47.10
2017-11-25T20:21:06.284Z,50.60
2017-11-25T20:23:34.579Z,52.53
2017-11-25T20:26:02.872Z,50.67
2017-11-25T20:28:31.192Z,48.10
2017-11-25T20:30:59.588Z,24.27
2017-11-25T20:33:28.675Z,29.07
2017-11-25T20:35:57.732Z,33.73
2017-11-25T20:38:26.083Z,31.87
2017-11-25T20:40:54.408Z,54.57
2017-11-25T20:43:23.500Z,33.07
2017-11-25T20:45:51.840Z,54.57
2017-11-25T20:48:20.123Z,56.43
2017-11-25T20:50:48.452Z,56.33
2017-11-25T20:53:17.508Z,61.37
2017-11-25T20:55:45.837Z,53.83
2017-11-25T20:58:14.131Z,97.33
2017-11-25T21:00:42.428Z,92.57
2017-11-25T21:03:10.740Z,85.30
2017-11-25T21:05:39.040Z,81.20
2017-11-25T21:08:08.115Z,85.07
2017-11-25T21:10:36.387Z,80.53
2017-11-25T21:13:04.694Z,103.40
2017-11-25T21:15:33.012Z,104.43
2017-11-25T21:18:01.367Z,91.93
2017-11-25T21:20:29.669Z,116.07
2017-11-25T21:22:58.001Z,105.07
2017-11-25T21:25:26.304Z,110.83
2017-11-25T21:27:54.634Z,105.83
2017-11-25T21:30:23.732Z,103.27
2017-11-25T21:32:52.820Z,110.57
2017-11-25T21:35:21.924Z,116.60
2017-11-25T21:37:51.000Z,92.87
2017-11-25T21:40:20.101Z,93.37
2017-11-25T21:42:49.191Z,93.73
2017-11-25T21:45:18.315Z,97.47
2017-11-25T21:47:47.376Z,104.50
2017-11-25T21:50:15.677Z,102.37
2017-11-25T21:52:44.016Z,90.30
2017-11-25T21:55:12.316Z,103.00
2017-11-25T21:57:40.657Z,90.57
2017-11-25T22:00:08.964Z,98.30
2017-11-25T22:02:37.452Z,100.53
2017-11-25T22:05:06.552Z,91.33
2017-11-25T22:07:35.627Z,40.73
2017-11-25T22:10:03.952Z,41.50
2017-11-25T22:12:32.267Z,77.53
2017-11-25T22:15:00.581Z,94.13
2017-11-25T22:17:28.907Z,86.10
2017-11-25T22:19:58.150Z,62.53
2017-11-25T22:22:26.531Z,76.47
2017-11-25T22:24:55.608Z,83.50
2017-11-25T22:27:23.905Z,78.20
2017-11-25T22:29:52.227Z,79.97
2017-11-25T22:32:20.551Z,93.57
2017-11-25T22:34:48.836Z,71.47
2017-11-25T22:37:17.916Z,74.70
2017-11-25T22:39:46.193Z,66.97
2017-11-25T22:42:14.500Z,81.00
2017-11-25T22:44:43.742Z,71.77
2017-11-25T22:47:12.068Z,64.00
2017-11-25T22:49:40.371Z,60.00
2017-11-25T22:52:08.729Z,76.70
2017-11-25T22:54:37.067Z,69.73
2017-11-25T22:57:06.136Z,92.77
2017-11-25T22:59:35.266Z,59.80
2017-11-25T23:02:03.552Z,76.70
2017-11-25T23:04:31.892Z,86.37
2017-11-25T23:07:00.183Z,67.37
2017-11-25T23:09:29.271Z,71.73
2017-11-25T23:11:58.363Z,63.97
2017-11-25T23:14:26.678Z,73.03
2017-11-25T23:16:54.979Z,74.07
2017-11-25T23:19:23.317Z,67.47
2017-11-25T23:21:52.373Z,74.33
2017-11-25T23:24:20.791Z,68.50
2017-11-25T23:26:49.888Z,68.23
2017-11-25T23:29:18.240Z,79.40
2017-11-25T23:31:46.576Z,56.70
2017-11-25T23:34:15.649Z,63.47
2017-11-25T23:36:43.969Z,88.80
2017-11-25T23:39:12.272Z,63.50
2017-11-25T23:41:40.581Z,79.90
2017-11-25T23:44:08.888Z,73.17
2017-11-25T23:46:37.276Z,79.07
2017-11-25T23:49:05.579Z,65.50
2017-11-25T23:51:33.910Z,64.17
2017-11-25T23:54:02.223Z,76.87
2017-11-25T23:56:30.514Z,34.70
2017-11-25T23:58:59.603Z,30.87
